createdAt,value
2019-02-11T00:00:59.756Z,5.42
2019-02-11T00:15:51.020Z,5.31
2019-02-11T00:30:50.875Z,5.23
2019-02-11T00:45:52.919Z,5.27
2019-02-11T01:00:50.805Z,5.24
2019-02-11T01:15:50.825Z,5.22
2019-02-11T01:30:52.701Z,5.30
2019-02-11T01:45:53.505Z,5.02
2019-02-11T02:00:51.782Z,4.81
2019-02-11T02:15:54.303Z,4.46
2019-02-11T02:30:51.554Z,4.46
2019-02-11T02:45:51.064Z,4.52
2019-02-11T03:00:50.978Z,4.36
2019-02-11T03:30:51.097Z,4.40
2019-02-11T03:45:53.342Z,4.41
2019-02-11T04:00:54.128Z,4.27
2019-02-11T04:15:51.048Z,4.16
2019-02-11T04:30:52.891Z,3.95
2019-02-11T04:45:50.733Z,3.84
2019-02-11T05:00:51.450Z,3.95
2019-02-11T05:15:54.574Z,3.95
2019-02-11T05:30:51.249Z,3.70
2019-02-11T05:45:52.313Z,3.92
2019-02-11T06:00:53.226Z,4.07
2019-02-11T06:15:51.057Z,4.66
2019-02-11T06:30:51.525Z,7.80
2019-02-11T06:45:53.818Z,7.88
2019-02-11T07:00:51.140Z,6.84
2019-02-11T07:15:51.115Z,6.90
2019-02-11T07:30:51.669Z,7.73
2019-02-11T07:45:59.942Z,7.83
2019-02-11T08:00:51.485Z,8.86
2019-02-11T08:15:52.021Z,8.98
2019-02-11T08:30:51.423Z,10.12
2019-02-11T08:45:51.378Z,11.81
2019-02-11T09:00:51.430Z,14.30
2019-02-11T09:15:55.331Z,11.49
2019-02-11T09:30:54.264Z,12.01
2019-02-11T09:45:51.029Z,12.50
2019-02-11T10:00:51.778Z,11.25
2019-02-11T10:15:53.435Z,10.39
2019-02-11T10:30:51.324Z,10.13
2019-02-11T10:45:50.800Z,10.05
2019-02-11T11:00:50.692Z,9.97
2019-02-11T11:15:50.587Z,9.74
2019-02-11T11:30:50.955Z,9.40
2019-02-11T11:45:51.403Z,9.48
2019-02-11T12:00:51.435Z,9.34
2019-02-11T12:15:51.536Z,9.21
2019-02-11T12:30:53.531Z,9.39
2019-02-11T12:45:51.690Z,9.75
2019-02-11T13:00:51.222Z,10.10
2019-02-11T13:16:01.296Z,10.09
2019-02-11T13:30:51.149Z,10.33
2019-02-11T13:45:51.619Z,10.44
2019-02-11T14:00:51.518Z,10.30
2019-02-11T14:15:53.965Z,10.21
2019-02-11T14:30:51.535Z,10.62
2019-02-11T14:45:50.775Z,10.72
2019-02-11T15:01:36.360Z,10.28
2019-02-11T15:15:50.815Z,10.32
2019-02-11T15:30:50.915Z,10.40
2019-02-11T15:45:52.112Z,10.44
2019-02-11T16:00:53.380Z,10.54
2019-02-11T16:15:51.217Z,10.51
2019-02-11T16:30:51.321Z,10.65
2019-02-11T16:45:51.661Z,10.80
2019-02-11T17:00:53.392Z,10.39
2019-02-11T17:15:50.821Z,9.69
2019-02-11T17:30:52.079Z,9.29
2019-02-11T17:45:53.374Z,9.13
2019-02-11T18:00:55.336Z,9.03
2019-02-11T18:30:51.217Z,8.23
2019-02-11T18:45:50.755Z,8.24
2019-02-11T19:00:50.640Z,8.22
2019-02-11T19:15:58.147Z,8.15
2019-02-11T19:30:51.024Z,7.98
2019-02-11T19:45:50.888Z,7.79
2019-02-11T20:00:52.936Z,7.39
2019-02-11T20:15:51.000Z,7.59
2019-02-11T20:30:51.204Z,8.06
2019-02-11T20:45:55.442Z,8.24
2019-02-11T21:00:51.121Z,8.23
2019-02-11T21:15:51.282Z,8.41
2019-02-11T21:30:53.815Z,8.42
2019-02-11T21:45:57.318Z,8.30
2019-02-11T22:00:51.878Z,7.47
2019-02-11T22:15:52.579Z,7.03
2019-02-11T22:30:51.636Z,5.90
2019-02-11T22:45:53.505Z,5.06
2019-02-11T23:00:58.552Z,4.85
2019-02-11T23:15:54.003Z,4.85
2019-02-11T23:30:51.264Z,4.91
2019-02-11T23:45:51.185Z,4.88
